Pagrindinis puslapis
METAR-TAF:

METAR-TAF

Oro uostai :

Naftos platforma

Norne Fpso, Norvegija

platuma: 66-01-48N, ilguma: 008-04-48E, Aukštis: 10 m

Dabartinis oras

Ataskaita buvo paskelbta 1 valandą ir 25 minutes, ne 12:50 UTC
Vėjas 15 kt iš Pietų
Temperatūra 11°C
Drėgmė 82%
Slėgis 1026 hPa
Matomumas 10 km arba daugiau
nėra debesų žemiau 1500 m ir nėra kamuolinių lietaus debesų

METAR: ENNE 011250Z 18015KT CAVOK 11/08 Q1026 W///S3

Laikas: 16:15 (14:15 UTC)

Prognozė

Ataskaita buvo paskelbta 3 valandos ir 15 minutes, ne 11:00 UTC
Prognozė galioja nuo 01 metu 12 UTC su 01 metu 17 UTC
Vėjas 18 kt iš Pietvakarių
Matomumas 10 km arba daugiau
nėra debesų žemiau 1500 m ir nėra kamuolinių lietaus debesų

TAF: ENNE 011100Z 0112/0117 22018KT CAVOK

Orai ataskaitas ir orų prognozės (METAR, TAF).

turimą stotys yra geltonos ir raudonos taškus žemėlapyje.

Perkelti pele per norėdami pamatyti stoties vardą.

Tada spustelėkite, norėdami matyti oro stebėjimo ir prognozės.

Norėdami pakeisti žemėlapį: spustelėkite ant žalios mygtukų su juodo kryžiaus žemyn,; žalią mygtuką su brūkšneliu, jei norite nutolinti; arba žalių rodyklių gretimoms žemėlapius.


METAR-TAF: